Latest Weather Observations for Portland Airport

IDV60801

Issued at 2:31 pm EST Wednesday 2 September 2015 (issued every 30 minutes, with the page automatically refreshed every 10 minutes)

About weather observations | Map of weather stations | Latest weather observations for VIC | Other Formats
Station Details ID: 090171 Name: CASHMORE AIRPORT Lat: -38.31 Lon: 141.47 Height: 80.9 m
Data from the previous 72 hours. | See also: Recent months at Portland Airport
Date/Time
EST
Temp
°C
App
Temp
°C
Dew
Point
Rel
Hum
%
Delta-T
°C
Wind Press
QNH
hPa
Press
MSL
hPa
Rain
since 9 am
mm
Dir
 
Spd
km/h
Gust
km/h
Spd
kts
Gust
kts
02/02:30pm 11.1 8.1 9.4 89 0.9 NE 15 22 8 12 1005.2 1005.2 2.0
02/02:00pm 11.7 8.0 9.4 86 1.2 NNE 19 24 10 13 1005.5 1005.5 1.8
02/01:30pm 11.6 8.2 9.3 86 1.2 N 17 26 9 14 1006.3 1006.3 1.6
02/01:00pm 11.7 8.2 8.7 82 1.5 NNE 17 28 9 15 1006.8 1006.8 1.6
02/12:30pm 11.5 8.4 8.7 83 1.4 NNE 15 22 8 12 1007.0 1007.0 1.6
02/12:00pm 11.0 8.2 8.4 84 1.3 NE 13 19 7 10 1007.4 1007.5 1.6
02/11:30am 10.8 8.8 8.6 86 1.1 NE 9 17 5 9 1007.2 1007.3 1.6
02/11:00am 10.0 8.2 7.8 86 1.1 NE 7 11 4 6 1007.4 1007.5 1.6
02/10:30am 10.4 7.3 7.3 81 1.5 NNE 13 20 7 11 1007.7 1007.8 0.8
02/10:00am 11.6 8.3 6.3 70 2.5 NNE 13 24 7 13 1008.0 1008.1 0.0
02/09:30am 11.0 7.6 6.0 71 2.3 NNE 13 20 7 11 1008.1 1008.2 0.0
02/09:00am 11.6 8.0 5.0 64 3.0 NE 13 19 7 10 1007.7 1007.8 0.2
02/08:30am 11.4 8.2 5.3 66 2.8 NE 11 17 6 9 1007.7 1007.8 0.2
02/08:00am 10.9 8.1 5.2 68 2.6 NE 9 13 5 7 1007.8 1007.9 0.2
02/07:30am 10.9 8.0 4.6 65 2.8 NE 9 17 5 9 1007.4 1007.5 0.2
02/07:00am 10.9 7.6 4.8 66 2.8 NE 11 15 6 8 1007.7 1007.8 0.2
02/06:30am 11.0 7.8 4.9 66 2.8 NE 11 17 6 9 1007.6 1007.7 0.2
02/06:00am 11.1 8.3 5.2 67 2.7 NNE 9 15 5 8 1007.9 1008.0 0.2
02/05:30am 11.0 8.2 5.3 68 2.6 NE 9 13 5 7 1007.8 1007.9 0.2
02/05:00am 10.4 8.2 6.0 74 2.1 NNE 7 9 4 5 1008.1 1008.2 0.2
02/04:30am 10.1 7.9 6.3 77 1.8 NNW 7 9 4 5 1008.2 1008.3 0.2
02/04:00am 10.7 8.1 6.1 73 2.2 N 9 13 5 7 1008.3 1008.4 0.2
02/03:30am 10.9 8.0 6.3 73 2.2 N 11 17 6 9 1008.3 1008.4 0.2
02/03:00am 11.4 8.3 5.7 68 2.7 N 11 17 6 9 1008.8 1008.9 0.0
02/02:30am 11.2 8.5 5.5 68 2.6 N 9 13 5 7 1009.0 1009.1 0.0
02/02:00am 10.8 8.6 6.0 72 2.2 N 7 7 4 4 1009.1 1009.2 0.0
02/01:30am 11.0 8.4 6.0 71 2.3 NNE 9 11 5 6 1009.2 1009.3 0.0
02/01:00am 11.4 8.0 6.1 70 2.5 NNE 13 17 7 9 1009.2 1009.3 0.0
02/12:30am 11.2 8.5 7.3 77 1.9 NE 11 17 6 9 1009.5 1009.6 0.0
02/12:00am 10.5 8.9 8.8 89 0.8 ENE 7 11 4 6 1009.7 1009.8 0.0
 
Date/Time
EST
Temp
°C
App
Temp
°C
Dew
Point
Rel
Hum
%
Delta-T
°C
Wind Press
QNH
hPa
Press
MSL
hPa
Rain
since 9 am
mm
Dir
 
Spd
km/h
Gust
km/h
Spd
kts
Gust
kts
01/11:30pm 10.7 9.2 9.1 90 0.8 E 7 9 4 5 1010.0 1010.1 0.0
01/11:00pm 10.8 9.3 9.2 90 0.8 ENE 7 9 4 5 1010.3 1010.4 0.0
01/10:30pm 10.8 9.3 9.1 89 0.8 ENE 7 9 4 5 1010.4 1010.5 0.0
01/10:00pm 10.4 8.4 8.5 88 0.9 ENE 9 11 5 6 1010.6 1010.7 0.0
01/09:30pm 10.9 9.6 9.2 89 0.9 E 6 9 3 5 1010.6 1010.7 0.0
01/09:00pm 11.3 9.9 9.6 89 0.9 E 7 9 4 5 1010.8 1010.9 0.0
01/08:30pm 11.9 10.3 10.1 89 0.9 ENE 9 13 5 7 1010.8 1010.9 0.0
01/08:00pm 11.9 10.3 10.1 89 0.9 ENE 9 13 5 7 1010.9 1011.0 0.0
01/07:30pm 11.9 9.9 10.1 89 0.9 E 11 17 6 9 1010.7 1010.8 0.0
01/07:00pm 11.9 9.9 10.0 88 1.0 E 11 17 6 9 1011.0 1011.1 0.0
01/06:30pm 11.8 9.7 9.7 87 1.1 ENE 11 13 6 7 1011.0 1011.1 0.0
01/06:00pm 11.8 10.0 9.5 86 1.2 E 9 13 5 7 1010.8 1010.9 0.0
01/05:30pm 12.3 10.5 9.3 82 1.5 E 9 13 5 7 1010.8 1010.9 0.0
01/05:00pm 12.8 10.5 9.1 78 1.9 E 11 17 6 9 1010.6 1010.7 0.0
01/04:30pm 13.1 10.0 9.0 76 2.1 E 15 19 8 10 1010.6 1010.7 0.0
01/04:00pm 13.5 10.4 8.8 73 2.4 E 15 20 8 11 1010.8 1010.9 0.0
01/03:30pm 13.6 10.9 8.9 73 2.4 ESE 13 19 7 10 1011.3 1011.4 0.0
01/03:00pm 14.5 12.3 9.5 72 2.6 E 11 17 6 9 1011.8 1011.9 0.0
01/02:30pm 13.5 11.1 8.8 73 2.4 E 11 17 6 9 1012.1 1012.2 0.0
01/02:00pm 13.6 10.6 7.8 68 2.9 NNE 13 17 7 9 1012.5 1012.5 0.0
01/01:30pm 13.4 10.4 7.8 69 2.8 NNE 13 19 7 10 1013.1 1013.1 0.0
01/01:00pm 12.8 9.2 6.6 66 3.0 NNE 15 19 8 10 1013.5 1013.5 0.0
01/12:30pm 12.5 9.6 6.5 67 2.9 NNE 11 17 6 9 1013.9 1013.9 0.0
01/12:00pm 11.9 8.6 6.6 70 2.5 NNE 13 17 7 9 1014.4 1014.4 0.0
01/11:30am 11.1 8.1 5.8 70 2.5 NNE 11 17 6 9 1014.8 1014.8 0.0
01/11:00am 9.9 6.3 5.1 72 2.2 NE 13 19 7 10 1015.2 1015.2 0.0
01/10:30am 9.3 6.7 6.2 81 1.4 NNE 9 13 5 7 1016.0 1016.0 0.0
01/10:00am 7.3 6.2 5.3 87 0.9 CALM 0 0 0 0 1016.4 1016.4 0.0
01/09:30am 6.5 4.6 5.1 91 0.6 NNE 4 7 2 4 1016.3 1016.4 0.0
01/09:00am 5.7 3.2 4.7 93 0.4 NNE 7 9 4 5 1016.3 1016.4 0.2
01/08:30am 5.1 2.7 4.5 96 0.3 N 6 9 3 5 1016.3 1016.4 0.2
01/08:00am 3.8 1.2 3.2 96 0.2 N 6 9 3 5 1016.3 1016.4 0.2
01/07:30am 2.8 -0.5 2.4 97 0.2 N 9 11 5 6 1016.5 1016.6 0.2
01/07:00am 1.5 -1.7 0.9 96 0.2 N 7 9 4 5 1016.2 1016.3 0.0
01/06:30am 1.8 -1.7 1.2 96 0.2 N 9 9 5 5 1015.9 1016.0 0.0
01/06:00am 2.1 -1.4 1.5 96 0.2 N 9 11 5 6 1015.9 1016.0 0.0
01/05:30am 1.9 -1.6 1.3 96 0.2 N 9 11 5 6 1015.9 1016.0 0.0
01/05:00am 2.2 -1.3 1.5 95 0.3 N 9 11 5 6 1015.8 1015.9 0.0
01/04:30am 2.3 -1.1 1.6 95 0.3 N 9 11 5 6 1015.9 1016.0 0.0
01/04:00am 2.9 -0.4 2.2 95 0.3 N 9 13 5 7 1016.0 1016.1 0.0
01/03:30am 3.3 -0.4 2.4 94 0.4 NNE 11 13 6 7 1016.3 1016.4 0.0
01/03:00am 3.1 0.1 2.2 94 0.4 N 7 11 4 6 1016.9 1017.0 0.0
01/02:30am 2.9 -0.5 2.0 94 0.4 N 9 11 5 6 1017.3 1017.4 0.0
01/02:00am 3.3 -0.4 2.3 93 0.4 N 11 13 6 7 1017.7 1017.8 0.0
01/01:30am 3.9 1.0 2.4 90 0.6 N 7 9 4 5 1017.8 1017.9 0.0
01/01:00am 4.9 2.7 3.1 88 0.7 N 4 7 2 4 1018.1 1018.2 0.0
01/12:30am 6.1 3.4 3.9 86 0.9 NNW 7 7 4 4 1018.6 1018.7 0.0
01/12:00am 6.8 4.5 4.6 86 1.0 NNW 6 9 3 5 1019.0 1019.1 0.0
 
Date/Time
EST
Temp
°C
App
Temp
°C
Dew
Point
Rel
Hum
%
Delta-T
°C
Wind Press
QNH
hPa
Press
MSL
hPa
Rain
since 9 am
mm
Dir
 
Spd
km/h
Gust
km/h
Spd
kts
Gust
kts
31/11:30pm 6.8 4.0 5.0 88 0.8 N 9 11 5 6 1019.1 1019.2 0.0
31/11:00pm 7.1 4.7 5.1 87 0.9 N 7 9 4 5 1019.2 1019.3 0.0
31/10:30pm 7.7 5.2 5.0 83 1.2 NE 7 11 4 6 1019.5 1019.6 0.0
31/10:00pm 8.1 7.2 6.2 88 0.9 CALM 0 0 0 0 1019.6 1019.7 0.0
31/09:30pm 8.1 7.3 6.6 90 0.7 CALM 0 0 0 0 1019.6 1019.7 0.0
31/09:00pm 8.3 7.5 6.4 88 0.9 CALM 0 0 0 0 1019.8 1019.9 0.0
31/08:30pm 8.6 7.8 6.7 88 0.9 CALM 0 0 0 0 1019.8 1019.9 0.0
31/08:00pm 8.7 7.9 6.5 86 1.0 CALM 0 0 0 0 1019.6 1019.7 0.0
31/07:30pm 8.8 8.0 6.4 85 1.1 CALM 0 0 0 0 1019.4 1019.5 0.0
31/07:00pm 9.0 7.8 6.4 84 1.2 SE 2 6 1 3 1019.2 1019.3 0.0
31/06:30pm 9.0 6.8 6.3 83 1.2 SE 7 11 4 6 1019.1 1019.2 0.0
31/06:00pm 9.2 7.0 6.3 82 1.3 SE 7 11 4 6 1019.2 1019.3 0.0
31/05:30pm 9.3 6.8 6.4 82 1.3 ESE 9 13 5 7 1019.1 1019.2 0.0
31/05:00pm 9.6 7.6 6.9 83 1.3 E 7 13 4 7 1019.4 1019.5 0.0
31/04:30pm 10.2 7.7 6.7 79 1.6 SE 9 13 5 7 1019.4 1019.5 0.0
31/04:00pm 10.4 7.8 6.0 74 2.0 SE 9 13 5 7 1019.6 1019.7 0.0
31/03:30pm 10.7 8.5 6.3 74 2.1 SSE 7 11 4 6 1019.8 1019.9 0.0
31/03:00pm 10.9 8.3 6.3 73 2.2 S 9 13 5 7 1020.1 1020.2 0.0
31/02:30pm 10.5 7.9 6.1 74 2.1 SSW 9 13 5 7 1020.1 1020.2 0.0
31/02:00pm 10.2 7.6 6.2 76 1.9 SSW 9 13 5 7 1020.3 1020.4 0.0
31/01:30pm 10.3 7.4 6.6 78 1.7 SW 11 19 6 10 1020.7 1020.8 0.0
31/01:00pm 10.4 7.6 6.9 79 1.7 SSW 11 19 6 10 1021.0 1021.1 0.0
31/12:30pm 9.8 7.0 6.9 82 1.4 SSW 11 17 6 9 1021.5 1021.6 0.0
31/12:00pm 10.1 8.1 7.0 81 1.5 S 7 11 4 6 1021.9 1022.0 0.0
31/11:30am 10.3 8.2 6.8 79 1.7 SW 7 19 4 10 1022.0 1022.1 0.0
31/11:00am 10.1 7.6 6.6 79 1.6 SSW 9 15 5 8 1022.1 1022.2 0.0
31/10:30am 9.1 7.6 6.9 86 1.0 WNW 4 9 2 5 1022.2 1022.3 0.0
31/10:05am 8.5 6.4 6.8 89 0.8 SW 7 9 4 5 1022.4 1022.5 0.0
31/10:00am 8.5 6.4 6.8 89 0.8 SSW 7 9 4 5 1022.4 1022.5 0.0
31/09:48am 8.8 6.4 6.9 88 0.9 SSW 9 11 5 6 1022.4 1022.5 0.0
31/09:30am 8.8 6.7 6.6 86 1.0 SSW 7 13 4 7 1022.3 1022.4 0.0
31/09:00am 9.0 7.5 7.0 87 0.9 ENE 4 9 2 5 1022.4 1022.5 0.2
31/08:30am 8.1 7.1 7.5 96 0.3 NNE 2 9 1 5 1022.3 1022.4 0.2
31/08:00am 7.1 5.9 6.5 96 0.3 N 2 6 1 3 1022.2 1022.3 0.2
31/07:30am 7.0 5.1 6.6 97 0.2 N 6 7 3 4 1022.2 1022.3 0.2
31/07:00am 6.5 4.8 5.9 96 0.3 N 4 6 2 3 1022.0 1022.1 0.2
31/06:30am 6.5 5.6 5.9 96 0.3 CALM 0 0 0 0 1021.9 1022.0 0.2
31/06:00am 6.2 4.1 5.6 96 0.3 N 6 7 3 4 1021.9 1022.0 0.2
31/05:30am 6.2 4.5 5.8 97 0.2 N 4 7 2 4 1022.0 1022.1 0.2
31/05:00am 6.1 4.7 5.5 96 0.3 N 2 7 1 4 1022.1 1022.2 0.2
31/04:30am 6.1 3.8 5.7 97 0.2 N 7 9 4 5 1022.0 1022.1 0.2
31/04:25am 6.1 3.9 5.5 96 0.3 N 6 9 3 5 1022.0 1022.1 0.2
31/04:16am 6.1 3.8 5.7 97 0.2 N 7 9 4 5 1022.1 1022.2 0.2
31/04:06am 5.6 3.7 5.0 96 0.3 N 4 7 2 4 1022.1 1022.2 0.2
31/04:00am 5.4 2.9 4.8 96 0.3 N 7 9 4 5 1022.1 1022.2 0.2
31/03:30am 4.4 2.6 3.7 95 0.3 NNE 2 7 1 4 1022.2 1022.3 0.2
31/03:00am 4.5 3.1 3.8 95 0.3 CALM 0 0 0 0 1022.4 1022.5 0.2
31/02:30am 4.2 2.8 3.3 94 0.4 CALM 0 0 0 0 1022.9 1023.0 0.2
31/02:00am 4.2 2.7 3.2 93 0.4 CALM 0 0 0 0 1023.3 1023.4 0.2
31/01:30am 5.1 2.6 3.9 92 0.5 ESE 6 11 3 6 1023.6 1023.7 0.2
31/01:00am 5.6 4.3 4.1 90 0.6 CALM 0 0 0 0 1023.8 1023.9 0.2
31/12:30am 7.5 5.8 6.0 90 0.7 E 4 7 2 4 1024.0 1024.2 0.0
31/12:18am 7.7 5.7 6.2 90 0.7 E 6 7 3 4 1024.1 1024.3 0.0
31/12:00am 7.8 6.1 6.1 89 0.8 ESE 4 15 2 8 1024.2 1024.4 0.0
 
Date/Time
EST
Temp
°C
App
Temp
°C
Dew
Point
Rel
Hum
%
Delta-T
°C
Wind Press
QNH
hPa
Press
MSL
hPa
Rain
since 9 am
mm
Dir
 
Spd
km/h
Gust
km/h
Spd
kts
Gust
kts
30/11:53pm 7.6 6.2 5.7 88 0.9 E 2 7 1 4 1024.3 1024.5 0.0
30/11:30pm 7.1 5.9 4.8 85 1.0 CALM 0 0 0 0 1024.4 1024.6 0.0
30/11:00pm 8.5 5.8 5.8 83 1.2 ESE 9 17 5 9 1024.5 1024.7 0.0
30/10:30pm 8.3 5.9 5.2 81 1.4 E 7 11 4 6 1024.7 1024.9 0.0
30/10:00pm 8.3 6.1 5.1 80 1.4 ESE 6 11 3 6 1025.0 1025.2 0.0
30/09:30pm 8.3 5.8 4.9 79 1.5 SE 7 11 4 6 1025.2 1025.3 0.0
30/09:00pm 8.0 6.8 6.3 89 0.8 ESE 2 9 1 5 1025.0 1025.2 0.0
30/08:30pm 7.8 7.0 6.3 90 0.7 CALM 0 0 0 0 1025.0 1025.2 0.0
30/08:00pm 7.8 5.6 6.4 91 0.6 ESE 7 11 4 6 1025.0 1025.2 0.0
30/07:30pm 7.9 5.0 6.4 90 0.7 ESE 11 17 6 9 1025.0 1025.2 0.0
30/07:00pm 7.9 5.7 6.0 88 0.9 SE 7 9 4 5 1025.0 1025.2 0.0
30/06:30pm 8.3 7.0 5.9 85 1.1 ESE 2 9 1 5 1024.9 1025.1 0.0
30/06:00pm 9.0 6.0 6.1 82 1.3 SE 11 15 6 8 1024.9 1025.1 0.0
30/05:30pm 9.2 6.2 5.8 79 1.6 SE 11 15 6 8 1024.8 1025.0 0.0
30/05:00pm 10.0 6.3 6.3 78 1.7 SSE 15 19 8 10 1024.8 1025.0 0.0
30/04:30pm 10.5 7.8 5.5 71 2.3 SE 9 19 5 10 1024.9 1025.1 0.0
30/04:00pm 10.1 6.7 5.7 74 2.0 SE 13 17 7 9 1025.0 1025.2 0.0
30/03:30pm 10.6 7.2 6.0 73 2.1 ESE 13 20 7 11 1025.2 1025.3 0.0
30/03:00pm 11.5 7.8 4.7 63 3.1 S 13 19 7 10 1025.0 1025.2 0.0

Other Formats:

Comma delimited format used in spreadsheet applications
http://www.bom.gov.au/fwo/IDV60801/IDV60801.94828.axf

JavaScript Object Notation format (JSON) in row-major order
http://www.bom.gov.au/fwo/IDV60801/IDV60801.94828.json